createdAt,value
2018-06-23T00:01:09.304Z,13.50
2018-06-23T00:03:37.541Z,13.50
2018-06-23T00:06:05.928Z,13.40
2018-06-23T00:08:34.190Z,13.40
2018-06-23T00:11:02.459Z,13.50
2018-06-23T00:13:30.777Z,13.50
2018-06-23T00:15:59.072Z,13.50
2018-06-23T00:20:55.362Z,13.30
2018-06-23T00:23:23.839Z,13.50
2018-06-23T00:25:57.522Z,13.50
2018-06-23T00:28:25.814Z,13.50
2018-06-23T00:30:54.089Z,13.40
2018-06-23T00:33:22.468Z,13.40
2018-06-23T00:35:50.896Z,13.40
2018-06-23T00:38:19.201Z,13.40
2018-06-23T00:40:47.543Z,13.30
2018-06-23T00:43:15.814Z,13.30
2018-06-23T00:45:44.096Z,13.30
2018-06-23T00:48:12.632Z,13.30
2018-06-23T00:50:40.906Z,13.30
2018-06-23T00:53:09.180Z,13.20
2018-06-23T00:55:37.450Z,13.20
2018-06-23T00:58:05.718Z,13.20
2018-06-23T01:00:37.311Z,13.20
2018-06-23T01:03:05.637Z,13.20
2018-06-23T01:08:01.966Z,13.10
2018-06-23T01:10:30.214Z,13.10
2018-06-23T01:12:58.452Z,13.00
2018-06-23T01:15:26.722Z,13.00
2018-06-23T01:17:54.951Z,13.00
2018-06-23T01:20:23.228Z,13.00
2018-06-23T01:22:51.440Z,12.90
2018-06-23T01:25:19.704Z,12.90
2018-06-23T01:27:48.564Z,12.90
2018-06-23T01:30:16.890Z,12.90
2018-06-23T01:32:45.153Z,12.90
2018-06-23T01:35:13.447Z,12.90
2018-06-23T01:37:41.712Z,12.90
2018-06-23T01:40:09.980Z,12.80
2018-06-23T01:42:38.234Z,12.80
2018-06-23T01:45:06.508Z,12.80
2018-06-23T01:47:34.807Z,12.80
2018-06-23T01:50:03.109Z,12.80
2018-06-23T01:52:31.380Z,12.70
2018-06-23T01:54:59.698Z,12.60
2018-06-23T01:57:28.047Z,12.70
2018-06-23T01:59:56.321Z,12.70
2018-06-23T02:02:24.561Z,12.60
2018-06-23T02:04:52.815Z,12.70
2018-06-23T02:07:21.132Z,12.50
2018-06-23T02:09:49.408Z,12.60
2018-06-23T02:12:17.680Z,12.50
2018-06-23T02:14:51.311Z,12.50
2018-06-23T02:17:24.950Z,12.50
2018-06-23T02:19:58.704Z,12.50
2018-06-23T02:22:32.403Z,12.40
2018-06-23T02:25:06.059Z,12.20
2018-06-23T02:27:39.702Z,12.30
2018-06-23T02:30:13.443Z,12.30
2018-06-23T02:32:46.713Z,12.30
2018-06-23T02:35:15.023Z,12.30
2018-06-23T02:37:43.387Z,12.20
2018-06-23T02:40:11.655Z,12.10
2018-06-23T02:42:39.922Z,12.20
2018-06-23T02:45:08.184Z,12.20
2018-06-23T02:47:36.863Z,12.20
2018-06-23T02:50:05.282Z,12.30
2018-06-23T02:52:33.537Z,12.30
2018-06-23T02:55:02.021Z,12.20
2018-06-23T02:57:30.271Z,12.20
2018-06-23T02:59:58.806Z,12.20
2018-06-23T03:02:27.087Z,12.20
2018-06-23T03:04:55.508Z,12.10
2018-06-23T03:07:23.799Z,12.00
2018-06-23T03:09:52.081Z,11.90
2018-06-23T03:12:20.327Z,12.00
2018-06-23T03:14:48.584Z,11.90
2018-06-23T03:17:17.965Z,12.00
2018-06-23T03:19:50.672Z,12.00
2018-06-23T03:22:19.303Z,12.00
2018-06-23T03:24:47.527Z,12.00
2018-06-23T03:27:15.844Z,12.00
2018-06-23T03:29:44.891Z,12.00
2018-06-23T03:32:13.183Z,12.00
2018-06-23T03:34:41.472Z,12.00
2018-06-23T03:37:09.780Z,12.00
2018-06-23T03:39:38.055Z,12.00
2018-06-23T03:42:06.474Z,12.00
2018-06-23T03:44:34.788Z,11.90
2018-06-23T03:49:31.086Z,11.90
2018-06-23T03:51:59.382Z,12.00
2018-06-23T03:54:27.681Z,12.00
2018-06-23T03:59:23.978Z,12.00
2018-06-23T04:01:52.307Z,12.00
2018-06-23T04:04:20.554Z,12.00
2018-06-23T04:06:48.884Z,11.90
2018-06-23T04:09:17.132Z,12.00
2018-06-23T04:11:45.430Z,12.00
2018-06-23T04:14:13.708Z,12.10
2018-06-23T04:16:42.012Z,12.20
2018-06-23T04:19:10.291Z,12.30
2018-06-23T04:21:38.543Z,12.30
2018-06-23T04:24:06.816Z,12.30
2018-06-23T04:26:35.199Z,12.30
2018-06-23T04:29:03.478Z,12.40
2018-06-23T04:31:31.720Z,12.40
2018-06-23T04:34:00.031Z,12.40
2018-06-23T04:36:28.300Z,12.50
2018-06-23T04:38:56.558Z,12.40
2018-06-23T04:41:24.821Z,12.50
2018-06-23T04:43:53.087Z,12.40
2018-06-23T04:46:21.352Z,12.50
2018-06-23T04:48:49.628Z,12.50
2018-06-23T04:51:17.953Z,12.20
2018-06-23T04:53:48.187Z,12.20
2018-06-23T04:56:17.092Z,12.20
2018-06-23T04:58:45.381Z,12.10
2018-06-23T05:01:13.721Z,12.30
2018-06-23T05:03:41.975Z,12.40
2018-06-23T05:06:10.291Z,12.40
2018-06-23T05:08:39.079Z,12.30
2018-06-23T05:11:07.860Z,12.40
2018-06-23T05:13:36.184Z,12.60
2018-06-23T05:16:04.803Z,12.50
2018-06-23T05:18:33.201Z,12.50
2018-06-23T05:21:01.555Z,12.50
2018-06-23T05:23:29.978Z,12.60
2018-06-23T05:25:58.267Z,12.60
2018-06-23T05:28:26.556Z,12.80
2018-06-23T05:30:54.815Z,12.70
2018-06-23T05:33:23.667Z,12.80
2018-06-23T05:35:52.755Z,12.80
2018-06-23T05:38:21.047Z,13.00
2018-06-23T05:40:49.348Z,13.10
2018-06-23T05:43:17.632Z,13.20
2018-06-23T05:45:45.960Z,13.30
2018-06-23T05:48:14.250Z,13.40
2018-06-23T05:50:42.611Z,13.40
2018-06-23T05:53:10.919Z,13.30
2018-06-23T05:55:39.235Z,13.30
2018-06-23T05:58:07.535Z,13.50
2018-06-23T06:00:36.227Z,13.80
2018-06-23T06:03:04.548Z,14.10
2018-06-23T06:05:32.870Z,14.20
2018-06-23T06:10:29.215Z,14.30
2018-06-23T06:12:57.548Z,14.20
2018-06-23T06:15:25.826Z,14.20
2018-06-23T06:17:54.135Z,14.10
2018-06-23T06:20:22.447Z,14.60
2018-06-23T06:22:50.729Z,14.80
2018-06-23T06:25:20.111Z,14.90
2018-06-23T06:27:48.508Z,14.80
2018-06-23T06:30:16.799Z,14.90
2018-06-23T06:32:45.117Z,14.80
2018-06-23T06:35:13.444Z,14.80
2018-06-23T06:37:41.749Z,14.60
2018-06-23T06:40:10.025Z,14.70
2018-06-23T06:42:38.347Z,14.70
2018-06-23T06:45:06.945Z,15.00
2018-06-23T06:47:35.282Z,14.90
2018-06-23T06:50:03.619Z,15.10
2018-06-23T06:52:31.946Z,14.90
2018-06-23T06:55:00.298Z,14.90
2018-06-23T06:57:28.603Z,14.70
2018-06-23T07:02:24.903Z,14.50
2018-06-23T07:04:53.159Z,14.40
2018-06-23T07:07:21.432Z,14.40
2018-06-23T07:09:49.704Z,14.30
2018-06-23T07:12:17.984Z,14.30
2018-06-23T07:14:46.356Z,14.40
2018-06-23T07:17:14.752Z,14.00
2018-06-23T07:19:43.148Z,14.20
2018-06-23T07:22:11.448Z,14.20
2018-06-23T07:24:39.841Z,14.20
2018-06-23T07:29:36.256Z,14.40
2018-06-23T07:32:04.668Z,14.60
2018-06-23T07:34:33.055Z,14.90
2018-06-23T07:39:29.225Z,14.90
2018-06-23T07:41:57.527Z,14.90
2018-06-23T07:44:25.803Z,15.00
2018-06-23T07:46:54.119Z,15.20
2018-06-23T07:51:50.446Z,15.30
2018-06-23T07:54:18.785Z,15.50
2018-06-23T07:56:47.053Z,15.40
2018-06-23T07:59:15.307Z,15.40
2018-06-23T08:01:43.692Z,15.30
2018-06-23T08:04:11.888Z,15.20
2018-06-23T08:06:40.143Z,15.50
2018-06-23T08:09:09.365Z,16.00
2018-06-23T08:11:37.735Z,15.40
2018-06-23T08:14:06.057Z,15.20
2018-06-23T08:16:34.408Z,15.10
2018-06-23T08:19:02.732Z,15.30
2018-06-23T08:21:31.000Z,15.60
2018-06-23T08:23:59.361Z,15.30
2018-06-23T08:26:27.708Z,15.10
2018-06-23T08:28:55.941Z,15.00
2018-06-23T08:31:24.278Z,14.90
2018-06-23T08:33:52.556Z,14.90
2018-06-23T08:36:20.819Z,14.90
2018-06-23T08:38:49.182Z,14.80
2018-06-23T08:41:17.698Z,14.60
2018-06-23T08:43:46.046Z,14.40
2018-06-23T08:46:14.368Z,14.30
2018-06-23T08:48:43.035Z,14.30
2018-06-23T08:51:11.555Z,14.20
2018-06-23T08:53:40.053Z,14.10
2018-06-23T08:56:08.371Z,14.30
2018-06-23T08:58:36.711Z,14.60
2018-06-23T09:01:05.065Z,14.60
2018-06-23T09:03:33.342Z,15.10
2018-06-23T09:06:01.627Z,15.40
2018-06-23T09:08:29.889Z,15.70
2018-06-23T09:13:26.166Z,16.30
2018-06-23T09:15:54.499Z,16.10
2018-06-23T09:18:22.779Z,15.70
2018-06-23T09:20:51.031Z,16.00
2018-06-23T09:23:19.355Z,17.10
2018-06-23T09:25:47.835Z,17.30
2018-06-23T09:28:16.161Z,17.40
2018-06-23T09:30:44.477Z,17.20
2018-06-23T09:33:12.805Z,17.20
2018-06-23T09:35:41.110Z,17.40
2018-06-23T09:38:09.402Z,18.10
2018-06-23T09:40:37.654Z,20.40
2018-06-23T09:43:05.956Z,22.10
2018-06-23T09:45:34.257Z,20.90
2018-06-23T09:48:02.606Z,19.50
2018-06-23T09:50:30.846Z,19.00
2018-06-23T09:52:59.163Z,18.00
2018-06-23T09:57:55.602Z,17.40
2018-06-23T10:00:29.291Z,17.10
2018-06-23T10:02:59.830Z,16.90
2018-06-23T10:05:28.533Z,16.80
2018-06-23T10:10:25.141Z,16.40
2018-06-23T10:12:53.414Z,16.20
2018-06-23T10:15:21.744Z,16.00
2018-06-23T10:17:50.036Z,16.10
2018-06-23T10:20:18.264Z,16.40
2018-06-23T10:22:46.569Z,18.00
2018-06-23T10:25:14.841Z,21.00
2018-06-23T10:27:43.176Z,21.20
2018-06-23T10:30:11.443Z,21.00
2018-06-23T10:32:39.729Z,19.40
2018-06-23T10:35:08.028Z,18.30
2018-06-23T10:37:36.317Z,17.60
2018-06-23T10:40:04.654Z,17.10
2018-06-23T10:42:32.999Z,17.00
2018-06-23T10:45:01.294Z,17.00
2018-06-23T10:47:29.580Z,16.80
2018-06-23T10:49:57.883Z,16.80
2018-06-23T10:52:26.188Z,16.80
2018-06-23T10:57:22.849Z,17.00
2018-06-23T10:59:51.168Z,17.20
2018-06-23T11:02:19.436Z,17.30
2018-06-23T11:04:47.873Z,17.50
2018-06-23T11:07:16.294Z,17.70
2018-06-23T11:09:44.613Z,18.30
2018-06-23T11:12:12.951Z,19.10
2018-06-23T11:14:41.260Z,19.00
2018-06-23T11:17:09.558Z,19.00
2018-06-23T11:19:37.835Z,18.40
2018-06-23T11:22:06.237Z,18.30
2018-06-23T11:24:34.741Z,18.30
2018-06-23T11:27:02.952Z,18.30
2018-06-23T11:29:31.248Z,18.20
2018-06-23T11:31:59.542Z,17.90
2018-06-23T11:34:27.964Z,17.60
2018-06-23T11:36:56.260Z,17.40
2018-06-23T11:39:24.613Z,17.70
2018-06-23T11:41:52.929Z,18.20
2018-06-23T11:44:27.702Z,18.20
2018-06-23T11:46:56.005Z,18.30
2018-06-23T11:49:24.283Z,18.10
2018-06-23T11:51:52.615Z,17.80
2018-06-23T11:54:20.872Z,17.60
2018-06-23T11:59:17.215Z,17.10
2018-06-23T12:01:45.581Z,17.40
2018-06-23T12:04:20.829Z,18.00
2018-06-23T12:06:49.143Z,18.40
2018-06-23T12:09:17.538Z,18.90
2018-06-23T12:11:45.831Z,19.30
2018-06-23T12:14:14.125Z,19.60
2018-06-23T12:16:42.431Z,19.80
2018-06-23T12:21:39.227Z,19.10
2018-06-23T12:24:07.819Z,18.60
2018-06-23T12:26:36.300Z,17.70
2018-06-23T12:29:04.604Z,17.80
2018-06-23T12:31:32.900Z,18.10
2018-06-23T12:34:01.269Z,18.50
2018-06-23T12:38:57.532Z,18.40
2018-06-23T12:43:54.183Z,17.60
2018-06-23T12:48:50.544Z,17.20
2018-06-23T12:51:18.857Z,17.20
2018-06-23T12:53:47.169Z,17.10
2018-06-23T12:56:15.475Z,17.30
2018-06-23T12:58:43.810Z,17.30
2018-06-23T13:01:12.107Z,17.50
2018-06-23T13:06:08.388Z,17.60
2018-06-23T13:08:36.745Z,17.80
2018-06-23T13:11:05.959Z,18.30
2018-06-23T13:13:34.221Z,18.40
2018-06-23T13:16:02.499Z,18.80
2018-06-23T13:18:30.804Z,18.70
2018-06-23T13:20:59.073Z,18.90
2018-06-23T13:23:27.361Z,18.90
2018-06-23T13:25:55.656Z,18.40
2018-06-23T13:28:23.947Z,18.40
2018-06-23T13:30:52.235Z,18.40
2018-06-23T13:33:20.719Z,18.30
2018-06-23T13:35:49.322Z,18.30
2018-06-23T13:38:17.888Z,18.20
2018-06-23T13:40:46.376Z,18.40
2018-06-23T13:43:14.892Z,18.50
2018-06-23T13:45:43.408Z,18.80
2018-06-23T13:48:12.058Z,18.70
2018-06-23T13:50:40.567Z,18.80
2018-06-23T13:53:09.068Z,18.70
2018-06-23T13:55:37.550Z,18.80
2018-06-23T13:58:06.222Z,18.80
2018-06-23T14:03:02.863Z,19.20
2018-06-23T14:05:31.285Z,19.50
2018-06-23T14:07:59.811Z,19.20
2018-06-23T14:10:28.379Z,19.20
2018-06-23T14:12:56.983Z,19.20
2018-06-23T14:15:25.472Z,19.60
2018-06-23T14:17:53.997Z,19.80
2018-06-23T14:20:22.766Z,19.80
2018-06-23T14:22:51.313Z,19.90
2018-06-23T14:25:19.928Z,19.70
2018-06-23T14:27:48.431Z,19.80
2018-06-23T14:32:45.095Z,20.20
2018-06-23T14:35:13.576Z,20.10
2018-06-23T14:37:42.136Z,20.10
2018-06-23T14:40:10.628Z,20.10
2018-06-23T14:42:39.216Z,20.00
2018-06-23T14:45:07.956Z,19.80
2018-06-23T14:47:36.582Z,19.80
2018-06-23T14:50:05.180Z,19.40
2018-06-23T14:52:33.758Z,19.20
2018-06-23T14:55:02.248Z,19.20
2018-06-23T14:57:30.784Z,19.20
2018-06-23T15:02:27.574Z,19.30
2018-06-23T15:04:56.090Z,19.50
2018-06-23T15:07:24.666Z,19.70
2018-06-23T15:10:04.423Z,19.70
2018-06-23T15:12:44.281Z,20.10
2018-06-23T15:15:12.778Z,20.20
2018-06-23T15:17:41.372Z,20.20
2018-06-23T15:20:09.874Z,20.20
2018-06-23T15:22:38.192Z,20.30
2018-06-23T15:25:06.452Z,20.50
2018-06-23T15:27:34.766Z,20.60
2018-06-23T15:30:03.103Z,20.40
2018-06-23T15:32:31.386Z,19.90
2018-06-23T15:34:59.686Z,19.70
2018-06-23T15:37:28.046Z,19.80
2018-06-23T15:39:56.413Z,19.70
2018-06-23T15:42:24.638Z,19.50
2018-06-23T15:44:52.919Z,19.20
2018-06-23T15:47:21.287Z,19.20
2018-06-23T15:49:49.594Z,19.40
2018-06-23T15:54:45.847Z,19.50
2018-06-23T15:57:14.118Z,19.40
2018-06-23T15:59:42.564Z,19.40
2018-06-23T16:02:10.854Z,19.40
2018-06-23T16:04:39.135Z,19.20
2018-06-23T16:07:07.523Z,19.10
2018-06-23T16:09:35.852Z,18.90
2018-06-23T16:12:04.174Z,18.90
2018-06-23T16:14:32.486Z,18.90
2018-06-23T16:17:00.827Z,18.90
2018-06-23T16:19:29.129Z,19.00
2018-06-23T16:21:57.376Z,19.10
2018-06-23T16:24:25.680Z,19.30
2018-06-23T16:26:53.968Z,19.30
2018-06-23T16:29:22.258Z,19.10
2018-06-23T16:31:50.516Z,19.00
2018-06-23T16:34:18.785Z,19.30
2018-06-23T16:36:47.084Z,19.20
2018-06-23T16:39:15.408Z,19.10
2018-06-23T16:41:44.024Z,19.10
2018-06-23T16:44:12.336Z,19.30
2018-06-23T16:46:40.673Z,19.50
2018-06-23T16:49:08.937Z,19.60
2018-06-23T16:54:05.262Z,19.70
2018-06-23T16:56:33.544Z,19.80
2018-06-23T16:59:01.777Z,19.80
2018-06-23T17:01:30.088Z,19.80
2018-06-23T17:03:58.363Z,19.80
2018-06-23T17:06:26.674Z,19.70
2018-06-23T17:11:23.013Z,19.50
2018-06-23T17:13:51.235Z,19.40
2018-06-23T17:16:19.530Z,19.30
2018-06-23T17:18:47.932Z,19.00
2018-06-23T17:21:16.211Z,18.90
2018-06-23T17:23:44.505Z,18.90
2018-06-23T17:26:12.822Z,19.10
2018-06-23T17:28:41.197Z,19.40
2018-06-23T17:31:09.486Z,19.20
2018-06-23T17:33:37.830Z,19.00
2018-06-23T17:36:06.079Z,19.00
2018-06-23T17:41:02.350Z,19.00
2018-06-23T17:43:30.706Z,19.00
2018-06-23T17:48:27.095Z,19.20
2018-06-23T17:50:55.392Z,19.10
2018-06-23T17:53:23.709Z,19.10
2018-06-23T17:55:52.099Z,19.10
2018-06-23T17:58:20.500Z,19.10
2018-06-23T18:00:48.923Z,19.10
2018-06-23T18:03:17.220Z,19.00
2018-06-23T18:05:45.547Z,19.00
2018-06-23T18:08:13.799Z,18.90
2018-06-23T18:10:42.076Z,18.90
2018-06-23T18:13:10.383Z,18.80
2018-06-23T18:15:38.672Z,18.80
2018-06-23T18:18:06.966Z,18.80
2018-06-23T18:20:35.285Z,18.90
2018-06-23T18:23:03.570Z,18.90
2018-06-23T18:25:32.062Z,19.00
2018-06-23T18:28:00.336Z,18.90
2018-06-23T18:30:28.582Z,18.90
2018-06-23T18:32:57.162Z,18.90
2018-06-23T18:35:25.717Z,18.90
2018-06-23T18:37:54.293Z,18.80
2018-06-23T18:40:22.853Z,18.70
2018-06-23T18:42:51.155Z,18.70
2018-06-23T18:45:19.457Z,18.70
2018-06-23T18:47:47.767Z,18.80
2018-06-23T18:50:16.057Z,18.90
2018-06-23T18:52:44.336Z,18.90
2018-06-23T18:55:19.167Z,18.90
2018-06-23T18:57:47.555Z,18.80
2018-06-23T19:00:15.952Z,18.50
2018-06-23T19:02:44.251Z,18.50
2018-06-23T19:05:12.583Z,18.30
2018-06-23T19:07:40.920Z,18.20
2018-06-23T19:10:09.268Z,18.10
2018-06-23T19:12:37.562Z,18.30
2018-06-23T19:15:06.244Z,18.30
2018-06-23T19:17:34.581Z,18.30
2018-06-23T19:20:02.896Z,18.30
2018-06-23T19:22:31.625Z,18.40
2018-06-23T19:24:59.938Z,18.40
2018-06-23T19:27:28.192Z,18.40
2018-06-23T19:29:56.891Z,18.40
2018-06-23T19:32:25.227Z,18.30
2018-06-23T19:34:53.528Z,18.20
2018-06-23T19:37:21.798Z,18.20
2018-06-23T19:39:50.119Z,18.10
2018-06-23T19:42:18.387Z,18.00
2018-06-23T19:44:46.715Z,18.00
2018-06-23T19:47:14.987Z,18.00
2018-06-23T19:49:43.259Z,17.90
2018-06-23T19:52:12.118Z,17.90
2018-06-23T19:57:08.544Z,17.90
2018-06-23T19:59:36.900Z,17.80
2018-06-23T20:02:05.255Z,17.80
2018-06-23T20:04:33.613Z,17.70
2018-06-23T20:07:01.937Z,17.70
2018-06-23T20:09:30.186Z,17.60
2018-06-23T20:11:58.493Z,17.60
2018-06-23T20:14:26.765Z,17.50
2018-06-23T20:16:55.504Z,17.40
2018-06-23T20:19:23.767Z,17.40
2018-06-23T20:21:52.164Z,17.40
2018-06-23T20:24:20.407Z,17.30
2018-06-23T20:26:48.670Z,17.30
2018-06-23T20:29:16.940Z,17.20
2018-06-23T20:31:45.259Z,17.20
2018-06-23T20:36:42.031Z,17.10
2018-06-23T20:39:11.247Z,17.10
2018-06-23T20:41:39.858Z,17.00
2018-06-23T20:44:08.145Z,17.00
2018-06-23T20:46:36.410Z,16.90
2018-06-23T20:49:04.889Z,16.90
2018-06-23T20:51:33.138Z,16.90
2018-06-23T20:54:01.561Z,16.90
2018-06-23T20:56:30.016Z,16.80
2018-06-23T20:58:58.333Z,16.80
2018-06-23T21:03:54.938Z,16.70
2018-06-23T21:06:23.293Z,16.60
2018-06-23T21:08:51.582Z,16.70
2018-06-23T21:11:19.900Z,16.70
2018-06-23T21:13:48.218Z,16.70
2018-06-23T21:16:16.539Z,16.70
2018-06-23T21:18:44.878Z,16.70
2018-06-23T21:21:13.166Z,16.70
2018-06-23T21:23:41.473Z,16.70
2018-06-23T21:26:09.790Z,16.70
2018-06-23T21:28:38.075Z,16.70
2018-06-23T21:31:06.374Z,16.70
2018-06-23T21:33:34.744Z,16.80
2018-06-23T21:36:03.017Z,16.80
2018-06-23T21:38:31.319Z,16.70
2018-06-23T21:40:59.655Z,16.70
2018-06-23T21:43:28.043Z,16.80
2018-06-23T21:45:56.328Z,16.70
2018-06-23T21:48:25.066Z,16.70
2018-06-23T21:53:21.358Z,16.60
2018-06-23T21:55:49.620Z,16.60
2018-06-23T21:58:17.934Z,16.60
2018-06-23T22:00:46.275Z,16.50
2018-06-23T22:03:15.427Z,16.60
2018-06-23T22:05:43.820Z,16.60
2018-06-23T22:08:12.103Z,16.50
2018-06-23T22:13:08.404Z,16.50
2018-06-23T22:15:36.713Z,16.40
2018-06-23T22:18:05.024Z,16.40
2018-06-23T22:20:33.318Z,16.40
2018-06-23T22:23:01.617Z,16.40
2018-06-23T22:25:29.944Z,16.30
2018-06-23T22:27:58.264Z,16.20
2018-06-23T22:30:26.573Z,16.40
2018-06-23T22:32:54.856Z,16.30
2018-06-23T22:35:23.149Z,16.30
2018-06-23T22:37:51.423Z,16.40
2018-06-23T22:40:19.691Z,16.40
2018-06-23T22:47:43.952Z,16.20
2018-06-23T22:50:12.148Z,16.10
2018-06-23T22:52:40.449Z,16.20
2018-06-23T22:55:09.820Z,16.20
2018-06-23T22:57:38.114Z,16.20
2018-06-23T23:00:09.323Z,16.30
2018-06-23T23:02:37.564Z,16.20
2018-06-23T23:05:06.075Z,16.20
2018-06-23T23:07:34.314Z,16.20
2018-06-23T23:10:02.636Z,16.20
2018-06-23T23:12:30.955Z,16.20
2018-06-23T23:14:59.170Z,16.10
2018-06-23T23:17:27.490Z,16.00
2018-06-23T23:19:55.746Z,15.90
2018-06-23T23:22:24.039Z,15.90
2018-06-23T23:24:52.391Z,15.90
2018-06-23T23:27:20.726Z,15.80
2018-06-23T23:29:49.174Z,15.90
2018-06-23T23:32:17.734Z,15.90
2018-06-23T23:34:46.065Z,15.90
2018-06-23T23:37:14.322Z,15.80
2018-06-23T23:39:42.581Z,15.80
2018-06-23T23:42:10.839Z,15.80
2018-06-23T23:44:39.605Z,15.80
2018-06-23T23:47:07.940Z,15.80
2018-06-23T23:49:36.221Z,15.60
2018-06-23T23:52:04.489Z,15.60
2018-06-23T23:54:32.763Z,15.50
2018-06-23T23:57:01.099Z,15.50
2018-06-23T23:59:29.363Z,15.50
